Terminal Aerodrome Forecast
Issued by NWS

Home | Current Version | Previous Version | Text Only | Print | Product List | Glossary On
Versions: 1 2 3 4 5 6 7 8 9 10 11 12
131
FTUS42 KGSP 282336
TAFGMU
TAF
KGMU 282336Z 2900/2924 15007KT P6SM FEW080 BKN250
     FM290400 05003KT P6SM FEW030 BKN080 PROB30 2909/2913 4SM -SHRA
      OVC025
     FM291300 04007KT P6SM -RA BKN045
     FM291700 04010KT P6SM SCT040 BKN060 PROB30 2917/2922 4SM -RA
      OVC040=

USA.gov is the U.S. government's official web portal to all federal, state and local government web resources and services.